CACTUS KSEZ-KLAX
Flight info
| Callsign | CACTUS |
|---|---|
| Flight time | N/A |
| Altitude | 8600 |
| Route | KSEZ TO KLAX |
| Aircraft | SF50/L-SF50/L |
Departure
| Time | 2026-04-26 19:54 |
|---|---|
| Airport | Sedona Airport (KSEZ) |
Arrival
| Time | N/A |
|---|---|
| Airport | Los Angeles International Airport (KLAX) |
| Time | Latitude | Longitude | Altitude | Speed | Heading |
|---|---|---|---|---|---|
| 2026-04-26 19:42 | 34.85312 | -111.78429 | 4824 ft | 0 kts | 227° |
| 2026-04-26 19:51 | 34.85306 | -111.78428 | 4831 ft | 5 kts | 134° |
| 2026-04-26 19:51 | 34.85328 | -111.78382 | 4830 ft | 9 kts | 45° |
| 2026-04-26 19:52 | 34.85362 | -111.78332 | 4829 ft | 5 kts | 82° |
| 2026-04-26 19:52 | 34.85353 | -111.78308 | 4829 ft | 0 kts | 133° |
| 2026-04-26 19:53 | 34.85330 | -111.78285 | 4830 ft | 2 kts | 161° |
| 2026-04-26 19:53 | 34.85309 | -111.78290 | 4829 ft | 0 kts | 223° |
| 2026-04-26 19:54 | 34.85258 | -111.78346 | 4826 ft | 31 kts | 222° |
| 2026-04-26 19:54 | 34.84919 | -111.78764 | 4853 ft | 103 kts | 226° |
| 2026-04-26 19:54 | 34.84401 | -111.79435 | 5523 ft | 103 kts | 225° |
| 2026-04-26 19:54 | 34.83977 | -111.80068 | 6448 ft | 103 kts | 228° |
| 2026-04-26 19:55 | 34.83509 | -111.80778 | 7063 ft | 103 kts | 227° |
| 2026-04-26 19:55 | 34.83057 | -111.81445 | 7573 ft | 104 kts | 226° |
| 2026-04-26 19:55 | 34.82584 | -111.82137 | 8040 ft | 108 kts | 226° |
| 2026-04-26 19:55 | 34.82105 | -111.82838 | 8585 ft | 106 kts | 227° |
| 2026-04-26 19:56 | 34.81664 | -111.83555 | 9094 ft | 108 kts | 239° |
| 2026-04-26 19:56 | 34.81335 | -111.84437 | 9399 ft | 122 kts | 251° |
| 2026-04-26 19:56 | 34.81134 | -111.85502 | 9734 ft | 134 kts | 253° |
| 2026-04-26 19:56 | 34.80979 | -111.86666 | 10049 ft | 148 kts | 253° |
| 2026-04-26 19:57 | 34.80772 | -111.87964 | 10256 ft | 164 kts | 252° |
| 2026-04-26 19:57 | 34.80563 | -111.89291 | 10653 ft | 169 kts | 255° |
| 2026-04-26 19:57 | 34.80436 | -111.90239 | 10885 ft | 171 kts | 255° |
| 2026-04-26 19:57 | 34.80180 | -111.92073 | 11309 ft | 179 kts | 256° |
| 2026-04-26 19:58 | 34.80037 | -111.93163 | 10888 ft | 212 kts | 256° |
| 2026-04-26 19:58 | 34.79726 | -111.95632 | 10951 ft | 216 kts | 256° |
| 2026-04-26 19:58 | 34.79552 | -111.96812 | 11109 ft | 212 kts | 255° |
| 2026-04-26 19:58 | 34.79256 | -111.98550 | 11361 ft | 208 kts | 253° |
| 2026-04-26 19:59 | 34.78937 | -112.00251 | 11650 ft | 204 kts | 252° |
| 2026-04-26 19:59 | 34.78608 | -112.01919 | 11936 ft | 202 kts | 252° |
| 2026-04-26 19:59 | 34.78268 | -112.03566 | 12212 ft | 200 kts | 255° |
| 2026-04-26 19:59 | 34.77922 | -112.05200 | 12473 ft | 199 kts | 252° |
| 2026-04-26 20:00 | 34.77561 | -112.06821 | 12715 ft | 199 kts | 252° |
| 2026-04-26 20:00 | 34.77195 | -112.08441 | 12963 ft | 198 kts | 251° |
| 2026-04-26 20:00 | 34.76832 | -112.10052 | 13197 ft | 198 kts | 252° |
| 2026-04-26 20:00 | 34.76468 | -112.11664 | 13455 ft | 197 kts | 252° |
| 2026-04-26 20:01 | 34.76104 | -112.13270 | 13717 ft | 197 kts | 252° |
| 2026-04-26 20:01 | 34.75829 | -112.14896 | 13931 ft | 197 kts | 262° |
| 2026-04-26 20:01 | 34.75808 | -112.16570 | 14002 ft | 199 kts | 267° |
| 2026-04-26 20:01 | 34.75858 | -112.18266 | 14193 ft | 205 kts | 269° |
| 2026-04-26 20:02 | 34.75961 | -112.20038 | 14456 ft | 214 kts | 270° |
| 2026-04-26 20:02 | 34.76094 | -112.21857 | 14723 ft | 218 kts | 271° |
| 2026-04-26 20:02 | 34.76249 | -112.23695 | 15035 ft | 219 kts | 271° |
| 2026-04-26 20:02 | 34.76361 | -112.24918 | 15247 ft | 219 kts | 272° |
| 2026-04-26 20:03 | 34.76603 | -112.27365 | 15760 ft | 217 kts | 272° |
| 2026-04-26 20:03 | 34.76810 | -112.29156 | 16094 ft | 216 kts | 273° |
| 2026-04-26 20:03 | 34.77035 | -112.31000 | 16295 ft | 220 kts | 273° |
| 2026-04-26 20:03 | 34.77264 | -112.32827 | 16454 ft | 212 kts | 274° |
| 2026-04-26 20:04 | 34.77491 | -112.34568 | 16582 ft | 210 kts | 274° |
| 2026-04-26 20:04 | 34.77724 | -112.36316 | 16722 ft | 208 kts | 274° |
| 2026-04-26 20:04 | 34.77960 | -112.38057 | 16756 ft | 210 kts | 274° |
| 2026-04-26 20:04 | 34.78119 | -112.39822 | 16755 ft | 208 kts | 265° |
| 2026-04-26 20:05 | 34.77986 | -112.41571 | 16760 ft | 208 kts | 259° |
| 2026-04-26 20:05 | 34.77754 | -112.43310 | 16762 ft | 208 kts | 257° |
| 2026-04-26 20:05 | 34.77465 | -112.45037 | 16762 ft | 208 kts | 256° |
| 2026-04-26 20:05 | 34.77140 | -112.46755 | 16764 ft | 208 kts | 255° |
| 2026-04-26 20:06 | 34.76790 | -112.48467 | 16760 ft | 208 kts | 254° |
| 2026-04-26 20:06 | 34.76425 | -112.50174 | 16611 ft | 209 kts | 253° |
| 2026-04-26 20:06 | 34.76049 | -112.51878 | 16611 ft | 209 kts | 253° |
| 2026-04-26 20:06 | 34.75666 | -112.53578 | 16610 ft | 208 kts | 253° |
| 2026-04-26 20:07 | 34.75278 | -112.55276 | 16610 ft | 209 kts | 253° |
| 2026-04-26 20:07 | 34.74887 | -112.56977 | 16612 ft | 209 kts | 253° |
| 2026-04-26 20:07 | 34.74493 | -112.58679 | 16612 ft | 209 kts | 253° |
| 2026-04-26 20:07 | 34.74097 | -112.60379 | 16618 ft | 209 kts | 253° |
| 2026-04-26 20:08 | 34.73700 | -112.62081 | 16617 ft | 209 kts | 253° |
| 2026-04-26 20:08 | 34.73301 | -112.63783 | 16618 ft | 208 kts | 253° |
| 2026-04-26 20:08 | 34.72912 | -112.65439 | 16616 ft | 200 kts | 253° |
| 2026-04-26 20:08 | 34.72537 | -112.67034 | 16612 ft | 193 kts | 253° |
| 2026-04-26 20:09 | 34.72171 | -112.68594 | 16609 ft | 191 kts | 253° |
| 2026-04-26 20:09 | 34.71815 | -112.70116 | 16607 ft | 189 kts | 252° |
| 2026-04-26 20:09 | 34.71456 | -112.71648 | 16606 ft | 188 kts | 252° |
| 2026-04-26 20:09 | 34.71101 | -112.73168 | 16610 ft | 187 kts | 252° |
| 2026-04-26 20:10 | 34.70747 | -112.74684 | 16614 ft | 186 kts | 253° |
| 2026-04-26 20:10 | 34.70395 | -112.76197 | 16614 ft | 186 kts | 253° |
| 2026-04-26 20:10 | 34.70041 | -112.77709 | 16615 ft | 186 kts | 253° |
| 2026-04-26 20:10 | 34.69686 | -112.79224 | 16620 ft | 186 kts | 253° |
| 2026-04-26 20:11 | 34.69325 | -112.80760 | 16618 ft | 197 kts | 253° |
| 2026-04-26 20:11 | 34.68932 | -112.82422 | 16627 ft | 210 kts | 253° |
| 2026-04-26 20:11 | 34.68566 | -112.84176 | 16636 ft | 218 kts | 257° |
| 2026-04-26 20:12 | 34.68191 | -112.87931 | 16649 ft | 229 kts | 262° |
| 2026-04-26 20:12 | 34.68022 | -112.89875 | 16652 ft | 233 kts | 261° |
| 2026-04-26 20:12 | 34.67834 | -112.91845 | 16653 ft | 236 kts | 261° |
| 2026-04-26 20:12 | 34.67631 | -112.93847 | 16655 ft | 243 kts | 261° |
| 2026-04-26 20:13 | 34.67412 | -112.95912 | 16659 ft | 250 kts | 260° |
| 2026-04-26 20:13 | 34.67177 | -112.98041 | 16675 ft | 257 kts | 260° |
| 2026-04-26 20:13 | 34.66936 | -113.00211 | 16671 ft | 261 kts | 260° |
| 2026-04-26 20:13 | 34.66690 | -113.02375 | 16677 ft | 257 kts | 260° |
| 2026-04-26 20:14 | 34.66446 | -113.04506 | 16680 ft | 259 kts | 260° |
| 2026-04-26 20:14 | 34.66196 | -113.06677 | 16678 ft | 260 kts | 260° |
| 2026-04-26 20:14 | 34.65940 | -113.08885 | 16681 ft | 261 kts | 260° |
| 2026-04-26 20:14 | 34.65692 | -113.11038 | 16688 ft | 261 kts | 260° |
| 2026-04-26 20:15 | 34.65438 | -113.13225 | 16691 ft | 262 kts | 260° |
| 2026-04-26 20:15 | 34.65180 | -113.15421 | 16693 ft | 263 kts | 260° |
| 2026-04-26 20:15 | 34.64920 | -113.17625 | 16691 ft | 264 kts | 260° |
| 2026-04-26 20:15 | 34.64657 | -113.19833 | 16693 ft | 264 kts | 260° |
| 2026-04-26 20:16 | 34.64393 | -113.22046 | 16692 ft | 265 kts | 260° |
| 2026-04-26 20:16 | 34.64130 | -113.24261 | 16696 ft | 265 kts | 260° |
| 2026-04-26 20:16 | 34.63866 | -113.26478 | 16697 ft | 266 kts | 259° |
| 2026-04-26 20:16 | 34.63601 | -113.28697 | 16690 ft | 266 kts | 260° |
| 2026-04-26 20:17 | 34.63334 | -113.30920 | 16692 ft | 266 kts | 260° |
| 2026-04-26 20:17 | 34.63067 | -113.33140 | 16687 ft | 265 kts | 260° |
| 2026-04-26 20:17 | 34.62802 | -113.35355 | 16688 ft | 265 kts | 260° |
| 2026-04-26 20:17 | 34.62627 | -113.36821 | 16686 ft | 265 kts | 260° |
| 2026-04-26 20:18 | 34.62274 | -113.39781 | 16686 ft | 265 kts | 260° |
| 2026-04-26 20:18 | 34.62017 | -113.41957 | 16690 ft | 256 kts | 260° |
| 2026-04-26 20:18 | 34.61766 | -113.44071 | 16678 ft | 250 kts | 260° |
| 2026-04-26 20:18 | 34.61516 | -113.46161 | 16674 ft | 249 kts | 260° |
| 2026-04-26 20:19 | 34.61266 | -113.48245 | 16673 ft | 248 kts | 260° |
| 2026-04-26 20:19 | 34.61017 | -113.50310 | 16673 ft | 247 kts | 260° |
| 2026-04-26 20:19 | 34.60769 | -113.52362 | 16672 ft | 245 kts | 260° |
| 2026-04-26 20:19 | 34.60527 | -113.54372 | 16672 ft | 243 kts | 260° |
| 2026-04-26 20:20 | 34.60283 | -113.56398 | 16669 ft | 241 kts | 260° |
| 2026-04-26 20:20 | 34.60041 | -113.58403 | 16667 ft | 239 kts | 260° |
| 2026-04-26 20:20 | 34.59803 | -113.60401 | 16666 ft | 239 kts | 260° |
| 2026-04-26 20:20 | 34.59564 | -113.62414 | 16668 ft | 243 kts | 259° |
| 2026-04-26 20:21 | 34.59324 | -113.64457 | 16670 ft | 246 kts | 260° |
| 2026-04-26 20:21 | 34.59078 | -113.66523 | 16674 ft | 249 kts | 260° |
| 2026-04-26 20:21 | 34.58824 | -113.68620 | 16676 ft | 252 kts | 260° |
| 2026-04-26 20:21 | 34.58573 | -113.70697 | 16675 ft | 246 kts | 260° |
| 2026-04-26 20:22 | 34.58329 | -113.72735 | 16675 ft | 244 kts | 260° |
| 2026-04-26 20:22 | 34.58084 | -113.74772 | 16675 ft | 244 kts | 260° |
| 2026-04-26 20:22 | 34.57839 | -113.76807 | 16677 ft | 244 kts | 260° |
| 2026-04-26 20:22 | 34.57592 | -113.78838 | 16677 ft | 243 kts | 260° |
| 2026-04-26 20:23 | 34.57344 | -113.80867 | 16680 ft | 243 kts | 260° |
| 2026-04-26 20:23 | 34.57094 | -113.82900 | 16678 ft | 243 kts | 260° |
| 2026-04-26 20:23 | 34.56842 | -113.84932 | 16691 ft | 244 kts | 260° |
| 2026-04-26 20:23 | 34.56592 | -113.86944 | 16693 ft | 245 kts | 260° |
| 2026-04-26 20:24 | 34.56336 | -113.88994 | 16694 ft | 246 kts | 260° |
| 2026-04-26 20:24 | 34.56158 | -113.90418 | 16691 ft | 246 kts | 260° |
| 2026-04-26 20:24 | 34.55898 | -113.92468 | 16692 ft | 246 kts | 260° |
| 2026-04-26 20:24 | 34.55630 | -113.94512 | 16693 ft | 244 kts | 254° |